X  Blizu METAR Podaci o vazduhoplovstvu     KDNN Dalton Municipal Airport
Temperatura
30°C Temperatura
23°C Tačka Rose
66% Vlaga



Vetar
8 KM/S
5 MPS
2 M/S
4 Čvorovi



180°
J
Trenutna situacija

Delimično oblačno Delimično oblačno
Vazdušni pritisak 1015.92 (hPa) - 30 (inHg)
Vidljivost 10 (Milje) - 16.1 (km)
Aerodrom
Aerodromski kod. KDNN

Lokacija: Dalton Municipal Airport
Udaljenost: 34 (km)

Metar:
KDNN 211915Z AUTO 18004KT 10SM FEW090 SCT370 30/23 A3000 RMK AO2 T03010230 $

Vreme: 07-21-2024 15:15 EDT